Flight Track Log - Related Links

Times and Time Zones

All times are in EDT time to prevent confusion due to time zone crossing. See the N431EH flight status page for this flight to view local times or setup timezone preferences in your user account.

Time Position Orientation Groundspeed Altitude Reporting Facility
EDT Latitude Longitude Course Direction KTS MPH feet Rate Location/Type
Tue 01:40:34 PM 40.8086 -111.9786 37° Northeast 200 230 5,500  Level Salt Lake Center
Tue 01:45:51 PM 41.0402 -111.7510 97° East 411 473 23,200 3,256 Climbing FlightAware ADS-B
Tue 01:46:37 PM 41.0300 -111.6232 90° East 421 484 25,200 2,741 Climbing FlightAware ADS-B
Tue 01:47:12 PM 41.0359 -111.5360 83° East 409 471 26,900 2,783 Climbing FlightAware ADS-B
Tue 01:47:46 PM 41.0421 -111.4661 83° East 413 475 28,400 1,800 Climbing FlightAware ADS-B
Tue 01:48:22 PM 41.0511 -111.3634 83° East 442 509 29,000 429 Climbing FlightAware ADS-B
Tue 01:49:10 PM 41.0628 -111.2260 84° East 472 543 29,000  Level FlightAware ADS-B
Tue 01:49:48 PM 41.0726 -111.1133 82° East 472 543 29,000 538 Level FlightAware ADS-B
Tue 01:50:28 PM 41.0945 -111.0039 74° East 465 535 29,700 1,622 Climbing FlightAware ADS-B
Tue 01:52:16 PM 41.1510 -110.7280 75° East 454 522 33,000 770 Climbing FlightAware ADS-B
Tue 01:54:45 PM 41.2316 -110.3264 75° East 462 532 33,000  Level FlightAware ADS-B
Tue 01:55:49 PM 41.2687 -110.1389 75° East 469 540 33,000  Level FlightAware ADS-B
Tue 01:56:53 PM 41.3003 -109.9670 77° East 466 536 33,000  Level FlightAware ADS-B
Tue 01:57:53 PM 41.3027 -109.9537 76° East 465 535 33,000  Level FlightAware ADS-B
Tue 01:58:39 PM 41.3489 -109.6987 77° East 469 540 33,000  Level FlightAware ADS-B
Tue 01:59:55 PM 41.3849 -109.4963 77° East 471 542 33,000 -903 Level FlightAware ADS-B
Tue 02:02:05 PM 41.4489 -109.1321 77° East 454 522 29,900 -1,532 Descending FlightAware ADS-B
Tue 02:03:03 PM 41.4804 -108.9495 77° East 445 512 28,200 -2,139 Descending FlightAware ADS-B
Tue 02:03:46 PM 41.5010 -108.8296 77° East 435 501 26,300 -1,912 Descending FlightAware ADS-B
Tue 02:04:34 PM 41.5203 -108.7164 77° East 434 499 25,300 -1,473 Descending Denver Center
Tue 02:05:36 PM 41.5508 -108.5708 74° East 431 496 23,600 -1,694 Descending Denver Center
Tue 02:06:38 PM 41.5858 -108.4072 74° East 416 479 21,800 -1,610 Descending Denver Center
Tue 02:07:39 PM 41.6161 -108.2697 74° East 410 472 20,300 -1,610 Descending Denver Center
Tue 02:08:41 PM 41.6508 -108.1128 73° East 399 459 18,500 -1,433 Descending Denver Center
Tue 02:09:53 PM 41.6825 -107.9675 74° East 372 428 17,100 -1,403 Descending Salt Lake Center
Tue 02:10:45 PM 41.7086 -107.8433 74° East 364 419 15,600 -1,632 Descending Denver Center
Tue 02:11:47 PM 41.7350 -107.7194 74° East 363 418 14,000 -1,659 Descending Denver Center
Tue 02:12:48 PM 41.7619 -107.5931 74° East 328 377 12,200 -1,770 Descending Denver Center

Login

Don't have an account? Register now (free) for customized features, flight alerts, and more!